醉红阁

 找回密码
 立即注册

扫一扫,访问微社区

搜索
收藏本版 (30) |订阅

辽宁楼凤 今日: 0|主题: 1973|排名: 4 

作者 回复/查看 最后发表
[大连] 【37℃女人】 大连北岗桥附近的轻熟 很不错的 - [售价 2 金币] agree yutian5570 2015-4-12 18:14 31173 orangekuku 2015-5-3 15:42
[大连] 【芳芳】大连活巨好的身材火爆的妹子 - [售价 4 金币] attach_img heatlevel agree  ...23456..10 yingsu 2015-4-12 18:11 933373 chinabearry86 2016-12-6 20:50
[大连] 【伤心小女孩】大连妹妹 - [售价 2 金币] agree 刚回家 2015-4-12 18:08 3738 xyq051594 2015-5-3 00:15
[大连] 【绝色佳人】大连这个女女真有味 - [售价 2 金币] attach_img heatlevel agree  ...23456..13 f18249091003 2015-4-12 18:04 1252939 呀没带 2017-2-23 05:04
[大连] 【妩媚春心】大连开发区体验大胸温柔妹子 - [售价 2 金币] attach_img heatlevel agree  ...23456..9 光电股份 2015-4-12 17:50 862608 呀没带 2017-2-23 05:03
[大连] 【未知】辽宁清纯妹子体验记 - [售价 2 金币] agree ttljl 2015-4-11 19:33 2585 一往无前 2015-4-12 01:30
[大连] 【未知】大连金州熟女爽歪歪 - [售价 2 金币] agree css43000516 2015-4-11 19:32 3847 开发区肥牛 2015-4-26 00:38
[沈阳] 【等待爱我的人】沈阳验证温柔可爱学生妹 - [售价 2 金币] agree kaidah827 2015-4-11 19:10 8824 jiubanben 2015-4-21 08:33
[大连] 【风韵熟女】大连妹子 - [售价 2 金币] agree 风行万里 2015-4-11 00:17 2852 西门无恨 2015-4-25 15:12
[大连] 【各取所需】体验妹子 - [售价 8 金币] attach_img heatlevel agree  ...23456..15 jean_love 2015-4-10 12:47 1432302 星辰的夜320 2016-12-27 22:49
[大连] 【柔连似梦】体验东特购物广场妹子 - [售价 4 金币] attach_img heatlevel agree  ...23456..7 jean_love 2015-4-10 12:44 651959 huih 2016-9-6 09:56
[大连] 【十三】大连妖娆妹纸 - [售价 2 金币] attach_img agree  ...2345 jean_love 2015-4-8 20:18 441622 huih 2016-9-6 09:01
[大连] 【施夕】一路向南两天两夜体验妹子 - [售价 6 金币] attach_img heatlevel agree  ...23456..8 jean_love 2015-4-8 20:13 762388 呀没带 2016-10-18 01:09
[大连] 【十三】一路向南两天两夜之— - [售价 2 金币] attach_img agree  ...2345 jean_love 2015-4-8 19:59 431623 jiewenkkk 2015-5-1 16:04
[沈阳] 【欣欣】沈阳中街新玛特附近的美眉 - [售价 4 金币] agree luyunabb 2015-4-7 18:48 5945 jiubanben 2015-4-21 08:33
[沈阳] 【性感诱惑】沈阳年龄.身才.态度.服务超一流的妹妹 - [售价 2 金币] agree lx0313 2015-4-7 18:40 5967 zxcv77 2015-4-20 15:29
[沈阳] 【阿菲姐】沈阳铁西一绝 - [售价 2 金币] agree zy59125063 2015-4-7 18:38 3928 mq08547 2015-4-25 10:39
[沈阳] 【可儿】这个铁西楼凤绝对让你后悔 - [售价 2 金币] agree 红尘颠倒 2015-4-7 18:32 2524 boboandyy 2015-12-5 23:59
[沈阳] 【未知】沈阳东莞严打跑到东北接生意了 - [售价 2 金币] agree wscl1234 2015-4-7 18:28 4675 jiubanben 2015-4-21 08:34
[沈阳] 【未知】沈阳大悦城轻熟女服务态度好 - [售价 2 金币] agree 242321501 2015-4-7 18:21 2644 一往无前 2015-4-20 15:30
[沈阳] 【SPASM微在说说】豪放熟女 - [售价 2 金币] agree likaifu 2015-4-7 17:57 21144 boboandyy 2015-12-5 23:59
[沈阳] 【未知】沈阳不是好的我不发 - [售价 2 金币] agree 海之骄子 2015-4-7 17:49 2585 jiubanben 2015-4-30 00:29
[沈阳] 【未知】体验沈阳妹子 - [售价 2 金币] agree 海之骄子 2015-4-7 17:47 2350 boboandyy 2015-12-6 00:00
[沈阳] 【梦婷】沈阳太原街极品楼凤 - [售价 2 金币] agree 咯出现 2015-4-7 17:45 0612 咯出现 2015-4-7 17:45
[大连] 【伊一】清明节前潇洒遭遇不爽记 agree perfect 2015-4-7 11:11 2541 lovelj 2015-4-13 10:32
[大连] 【米露】解放广场附近体验兼职妹子 - [售价 2 金币] agree huanzhensu 2015-4-6 14:13 5660 西门无恨 2015-5-3 13:31
[沈阳] 【苍小空】不错 - [售价 2 金币] attach_img heatlevel agree  ...23456..17 123321damao 2015-4-5 12:20 1692105 z24146532 2017-2-5 10:05
[大连] 【莉莉】出差的意外收获 - [售价 2 金币] attach_img heatlevel agree  ...23456..10 hj123456789 2015-4-2 19:17 942302 bosimao 2016-8-21 00:34
[大连] 【萌妹子】胸大奶香性感妹子包你满意 - [售价 2 金币] attach_img heatlevel agree  ...23456..13 qw123456789 2015-4-2 15:25 1202138 luckme 2016-8-2 21:54
[大连] 【莉莉】不容错过的的兼职小妹 - [售价 2 金币] attach_img heatlevel agree  ...23456 大连屌丝 2015-4-2 02:10 541272 luckme 2016-8-2 18:09
[大连] 【要抱抱】体验丰满妞三月中旬第一帖 - [售价 2 金币] attach_img heatlevel agree  ...23456..8 jialu999 2015-4-1 19:22 781458 amstlwei 2016-8-9 07:58
[大连] 【安娜】验证兼职妹子 - [售价 8 金币] attach_img agree  ...234 550118006 2015-4-1 18:30 341007 胖小新 2016-7-16 08:48
[大连] 【美娜】验证妹子 - [售价 6 金币] agree dagecheng30 2015-3-29 16:58 6899 西门无恨 2015-5-3 13:31
[沈阳] 【好冷】沈阳狼长沙一战 - [售价 2 金币] attach_img heatlevel agree  ...23456..13 qingxue123 2015-3-26 16:44 1261744 星辰的夜320 2016-12-27 22:56
[大连] 【安娜】验证“东特女神” - [售价 8 金币] attach_img heatlevel agree  ...23456..14 xuzaxscdxu 2015-3-22 15:24 1372689 呀没带 2017-2-23 05:07
[大连] 【哈密瓜】大连理工大学良家小师妹一夜三次 agree  ...2 teentypl 2015-3-22 15:17 131968 马克西莫夫 2017-2-4 12:10
[大连] 【小婷】大连大美胸长白腿 - [售价 2 金币] agree dltskj 2015-3-21 19:25 3997 西门无恨 2015-4-25 15:12
[大连] 【1】大连金三角三洞可皆可插的气质轻熟女 - [售价 2 金币] agree feihrb 2015-3-21 19:14 71737 西门无恨 2015-5-3 13:32
[沈阳] 【未知】沈阳出租屋妹妹 - [售价 2 金币] agree 路过一次 2015-3-21 18:30 6789 jiubanben 2015-4-21 08:35
[沈阳] 【滢滢】给大家推荐个沈阳的资源! - [售价 2 金币] attach_img heatlevel agree  ...23456..13 晴天 2015-3-21 12:17 1212364 胖小新 2016-7-16 08:51
[大连] 【萌萌】朋友介绍的妹子 - [售价 6 金币] attach_img heatlevel agree  ...23456..22 dewu82 2015-3-20 18:26 2162182 3601436 2017-1-3 08:30
[沈阳] 【色妹子是好孩】沈阳27岁的离婚少妇 - [售价 2 金币] agree artemplar 2015-3-19 20:32 71773 jonson 2015-5-3 03:07
[沈阳] 【小甜甜】沈阳20岁妹妹 - [售价 2 金币] agree wcx222 2015-3-19 20:29 6855 jiubanben 2015-4-21 08:38
[沈阳] 【雨婷】沈阳出差验证迷人的长腿,大奶妹子 - [售价 2 金币] attach_img heatlevel agree  ...23456..29 le0823 2015-3-19 20:25 2882717 oklove990309 2016-9-22 08:06
[沈阳] 【未知】沈阳身材好 ,活好的妹妹 - [售价 2 金币] agree duc0304 2015-3-19 20:13 4663 四月天 2015-4-7 14:30
[大连] 【楠楠】丰满美少女 - [售价 8 金币] agree chenduo 2015-3-18 19:34 91025 西门无恨 2015-4-24 22:18
[大连] 【萌萌】大连周水前东特极品美女 - [售价 2 金币] attach_img heatlevel agree  ...23456..24 tansuo1019 2015-3-18 19:13 2372351 马克西莫夫 2017-2-4 12:11
[大连] 【雪儿】大连金州杨屯兼职 - [售价 2 金币] agree raulh_217 2015-3-18 19:01 3546 zxcv1 2015-3-24 11:45
[大连] 【白杨】大连开发区兼职 - [售价 2 金币] agree 20010704 2015-3-18 18:58 6624 zxcv1 2015-3-24 11:46
[大连] 【小宁宁】一路向南二 - [售价 6 金币] attach_img heatlevel agree  ...23456..21 jiushigz 2015-3-18 18:30 2072091 mklogo 2016-8-28 13:07
[大连] 【小公主】一路向南体验妹子 attach_img agree jiushigz 2015-3-18 18:28 6740 西门无恨 2015-5-3 13:38
[大连] 【水韵东方】 - [售价 6 金币] attach_img agree ROBCOCK 2015-3-18 18:21 5931 天使来了 2015-3-30 23:44
[沈阳] 【思念】老狼推荐不错的楼凤 - [售价 2 金币] attach_img heatlevel agree  ...23456..15 remote2010 2015-3-17 17:06 1451752 zerohao0 2016-6-6 01:43
[大连] 【零国度】验证友好路个体兼职 agree whj5821 2015-3-17 16:47 4865 orangekuku 2015-5-3 15:36
[大连] 【夏沫】东特购物广场小甜心 - [售价 5 金币] attach_img heatlevel agree  ...23456..7 wfdjy14jq 2015-3-15 10:21 621764 liuyinan321 2017-2-23 14:51
[大连] 【★小真★】一个不错的大奶妹 - [售价 2 金币] attach_img heatlevel agree  ...23456..12 playboyaa 2015-3-13 12:46 1141797 3601436 2016-12-27 08:57
[沈阳] 【晓轩】风骚丰满女,有毒龙。 - [售价 2 金币] attach_img heatlevel agree  ...23456..28 fuck000 2015-3-13 08:40 2782466 Xiaomigold 2017-2-25 18:47
[大连] 【阳光apple】大连出差干了个黑丝漂亮学生 - [售价 2 金币] agree  ...2 raulh_217 2015-3-12 21:44 161766 woaiwokuang 2016-5-18 23:37
[大连] 【嫣然】为妹妹说两句公道话 - [售价 2 金币] agree  ...2 heavengate429 2015-3-12 21:34 12817 西门无恨 2015-5-3 13:37
[大连] 【欲女求欢】大连熟女双飞价格便宜 - [售价 2 金币] agree 偶尔我也会哭 2015-3-12 21:31 81203 toolfans 2015-4-12 13:49
[大连] 【玲珑】大连身材极好的高挑长腿美女 - [售价 2 金币] attach_img heatlevel agree  ...23456..8 eric2013 2015-3-12 21:26 771652 huoying360 2016-11-20 12:18
[大连] 【绾绾】大连北站极品兼职 - [售价 2 金币] agree shmilhh 2015-3-12 19:50 6757 西门无恨 2015-5-3 13:39
[大连] 【未知】大连金州兼职良家 - [售价 2 金币] agree roger2643 2015-3-12 19:47 5616 zxcv1 2015-3-16 15:36
[沈阳] 【黑丝下の温柔】沈阳沈河区干骚女 - [售价 2 金币] attach_img heatlevel agree  ...23456..22 1123aa 2015-3-12 19:28 2142101 test123qwe 2017-1-30 17:08
[沈阳] 【未知】沈阳那一次失败的楼凤 agree hanx008 2015-3-12 19:12 0447 zhaojichen119 2015-3-21 18:32
[沈阳] 【娃娃】沈阳真实验证过的QQ妹 - [售价 2 金币] attach_img heatlevel agree  ...23456..20 dltskj 2015-3-12 18:46 1941691 oklove990309 2016-9-12 16:15
[沈阳] 【床丄小野猫】沈阳一兼职妹子服务不错 - [售价 2 金币] agree napig 2015-3-12 18:40 9699 jiubanben 2015-4-21 08:38
[沈阳] 【琳琳】沈阳市内五区外出妹子 - [售价 2 金币] agree 小菜鸟00911 2015-3-12 18:36 6503 zhaojichen119 2015-4-16 07:59
[沈阳] 【刘颖】沈阳风骚的大款楼凤 - [售价 2 金币] agree  ...2 funvbao 2015-3-12 18:30 10977 123321damao 2015-4-5 11:59
[沈阳] 【婉秋】沈阳验证逼紧熟女 - [售价 2 金币] agree zhangren 2015-3-12 18:26 5692 rainrain 2015-5-3 03:08
[沈阳] 【玫瑰花】沈阳狂插风骚熟女菊花 绝对是享受 - [售价 2 金币] attach_img heatlevel agree  ...23456..12 xiaoshan 2015-3-12 18:19 1192284 Xiaomigold 2017-2-25 18:49
[大连] 【lily】和大家分享我珍藏5年的楼凤 - [售价 2 金币] agree hahahuhu 2015-3-12 11:08 91025 51jsnh 2015-3-25 19:36
[大连] 【骚妇】稍重口味,肛交+暴力深喉 - [售价 2 金币] attach_img heatlevel agree  ...23456..18 playboyaa 2015-3-12 11:04 1783470 art_tj 2017-1-4 21:39
[大连] 【田蕊】沙河口区和平花蕊一样的漂亮姑娘 - [售价 4 金币] attach_img heatlevel agree  ...23456..12 金色丝袜 2015-3-12 10:00 1151857 xiouqu 2017-2-23 03:39
[大连] 【小碧玉】验证大连沙区妹妹 - [售价 2 金币] agree  ...2 freedeng 2015-3-11 22:23 19561 西门无恨 2015-5-3 13:33
[大连] 【乐乐】验证沙河口罗斯福妹妹 - [售价 2 金币] agree freedeng 2015-3-11 22:21 6544 Charles325 2015-3-18 23:01
[大连] 【柔莲似梦】女男爵系列一 attach_img heatlevel agree  ...23456 xiaoselang0070 2015-3-11 22:13 551635 huih 2016-9-6 09:50
[大连] 【Angel】女大学生,清纯可爱 - [售价 2 金币] agree  ...2 zuguoxu 2015-3-11 12:19 121295 西门无恨 2015-4-24 19:58
[沈阳] 【萍萍】中街丝足妹子 - [售价 2 金币] agree tzfomrt 2015-3-10 16:41 7634 zhaojichen119 2015-3-21 19:58
[沈阳] 【冰冰】夜会妹子 - [售价 2 金币] attach_img heatlevel agree  ...23456..17 erwin 2015-3-10 13:49 1681676 84210 2017-2-1 16:53
下一页 »

快速发帖

还可输入 80 个字符
您需要登录后才可以发帖 登录 | 立即注册

本版积分规则

醉红阁

GMT+8, 2017-2-28 06:54 , Processed in 0.077136 second(s), 13 queries , Eaccelerator On.

Powered by Discuz! X3.2

© 2001-2013 Comsenz Inc.

返回顶部 返回版块